Time;durP1;ratioP1;P1;durP2;ratioP2;P2;SDS_P1;SDS_P2;PMS_P1;PMS_P2;Temp;Humidity;BMP_temperature;BMP_pressure;BME280_temperature;BME280_humidity;BME280_pressure;Samples;Min_cycle;Max_cycle;Signal;HPM_P1;HPM_P2
2023/01/22 00:01:41;;;;;;;1.38;1.27;;;;;;;2.06;79.86;99874.03;5116620;28;20047;-69
2023/01/22 00:04:11;;;;;;;2.28;2.17;;;;;;;2.04;79.91;99873.09;5116548;28;20043;-69
2023/01/22 00:06:39;;;;;;;;;;;;;;;2.02;79.99;99875.56;5116783;28;20504;-69
2023/01/22 00:09:08;;;;;;;2.38;2.17;;;;;;;2.02;80.20;99878.09;5116313;28;19920;-69
2023/01/22 00:11:37;;;;;;;1.27;1.20;;;;;;;2.03;80.23;99876.44;5116390;28;20584;-69
2023/01/22 00:14:06;;;;;;;1.53;1.43;;;;;;;2.02;79.86;99874.69;5116664;28;20306;-69
2023/01/22 00:16:34;;;;;;;0.75;0.75;;;;;;;2.01;79.72;99878.03;5116281;28;20305;-69
2023/01/22 00:19:05;;;;;;;3.53;2.50;;;;;;;1.99;80.02;99875.44;5116135;28;20078;-69
2023/01/22 00:21:34;;;;;;;1.70;1.60;;;;;;;2.03;80.21;99871.41;5116246;28;20105;-69
2023/01/22 00:24:03;;;;;;;1.17;1.10;;;;;;;2.07;79.65;99848.03;5115891;28;20079;-69
2023/01/22 00:26:32;;;;;;;1.80;1.70;;;;;;;2.03;79.81;99831.13;5116388;28;20050;-69
2023/01/22 00:29:00;;;;;;;4.30;3.72;;;;;;;1.95;79.97;99822.44;5115987;28;20040;-69
2023/01/22 00:31:29;;;;;;;0.52;0.52;;;;;;;2.11;79.69;99864.13;5114750;28;20084;-69
2023/01/22 00:33:58;;;;;;;0.67;0.67;;;;;;;2.09;80.06;99869.09;5115982;28;20036;-69
2023/01/22 00:36:28;;;;;;;3.10;2.28;;;;;;;2.05;80.26;99874.81;5115885;28;20284;-69
2023/01/22 00:38:57;;;;;;;1.05;1.00;;;;;;;2.04;79.92;99883.16;5116180;28;20043;-69
2023/01/22 00:41:26;;;;;;;1.75;1.65;;;;;;;2.05;80.30;99877.34;5114644;28;20040;-69
2023/01/22 00:43:55;;;;;;;0.63;0.63;;;;;;;2.06;79.90;99871.50;5115747;28;20071;-69
2023/01/22 00:46:25;;;;;;;1.63;1.52;;;;;;;2.07;80.44;99882.41;5115977;28;20367;-69
2023/01/22 00:48:54;;;;;;;3.42;3.13;;;;;;;2.07;80.44;99888.31;5115620;28;20036;-69
2023/01/22 00:51:23;;;;;;;5.57;3.70;;;;;;;2.10;80.28;99893.47;5115527;28;20044;-69
2023/01/22 00:53:53;;;;;;;5.10;4.25;;;;;;;2.12;80.47;99896.88;5115558;28;20043;-69
2023/01/22 00:56:23;;;;;;;1.98;1.83;;;;;;;2.13;80.58;99883.50;5115836;28;20074;-69
2023/01/22 00:58:52;;;;;;;1.95;1.85;;;;;;;2.15;80.59;99866.81;5115461;27;20088;-69
2023/01/22 01:01:21;;;;;;;1.40;1.33;;;;;;;2.17;80.97;99865.19;5115642;28;20447;-69
2023/01/22 01:03:50;;;;;;;1.42;1.35;;;;;;;2.17;80.28;99864.31;5115351;28;20032;-68
2023/01/22 01:06:21;;;;;;;4.05;2.55;;;;;;;2.17;80.37;99867.72;5115629;28;20047;-69
2023/01/22 01:08:50;;;;;;;1.80;1.55;;;;;;;2.13;80.73;99873.44;5114197;28;20046;-69
2023/01/22 01:11:22;;;;;;;2.88;1.73;;;;;;;2.13;80.88;99878.47;5115065;28;20093;-69
2023/01/22 01:13:52;;;;;;;0.95;0.95;;;;;;;2.03;80.52;99866.38;5114305;28;20047;-69
2023/01/22 01:16:23;;;;;;;1.05;1.05;;;;;;;1.89;80.42;99839.84;5115423;28;20081;-69
2023/01/22 01:18:52;;;;;;;0.85;0.85;;;;;;;2.13;81.07;99883.50;5115078;28;20048;-69
2023/01/22 01:21:21;;;;;;;1.98;1.83;;;;;;;2.12;80.25;99881.78;5114969;28;20520;-68
2023/01/22 01:23:50;;;;;;;1.77;1.67;;;;;;;2.13;80.31;99878.47;5113779;28;20040;-68
2023/01/22 01:26:20;;;;;;;2.15;2.05;;;;;;;2.15;80.76;99876.88;5114925;28;20100;-69
2023/01/22 01:28:51;;;;;;;1.90;1.80;;;;;;;2.13;80.70;99867.53;5115455;28;20138;-69
2023/01/22 01:31:24;;;;;;;4.13;2.25;;;;;;;2.16;80.26;99876.06;5114741;28;20496;-69
2023/01/22 01:33:58;;;;;;;1.77;1.67;;;;;;;2.14;80.57;99885.22;5115225;28;20094;-69
2023/01/22 01:36:28;;;;;;;0.95;0.95;;;;;;;2.12;80.58;99885.97;5114769;28;20050;-69
2023/01/22 01:39:16;;;;;;;3.20;1.77;;;;;;;2.10;80.07;99873.31;5115297;28;20051;-69
2023/01/22 01:41:49;;;;;;;0.95;0.95;;;;;;;2.14;80.92;99874.28;5113589;28;20047;-69
2023/01/22 01:44:20;;;;;;;5.18;1.45;;;;;;;2.16;80.44;99878.56;5114934;28;20075;-69
2023/01/22 01:46:54;;;;;;;0.60;0.60;;;;;;;2.20;79.96;99875.38;5114586;28;20047;-68
2023/01/22 01:49:29;;;;;;;0.90;0.90;;;;;;;2.22;80.26;99871.25;5113318;28;20051;-69
2023/01/22 01:52:01;;;;;;;1.95;1.60;;;;;;;2.22;80.09;99863.69;5114323;28;20043;-69
2023/01/22 01:54:31;;;;;;;0.90;0.90;;;;;;;2.23;80.44;99860.34;5114616;28;20054;-69
2023/01/22 01:57:08;;;;;;;0.80;0.77;;;;;;;2.24;80.44;99867.13;5114692;28;20370;-69
2023/01/22 01:59:39;;;;;;;2.53;2.33;;;;;;;2.21;80.17;99867.00;5113188;28;20044;-69
2023/01/22 02:02:08;;;;;;;0.85;0.85;;;;;;;2.18;80.36;99854.34;5114401;28;20031;-69
2023/01/22 02:04:36;;;;;;;1.10;1.05;;;;;;;2.21;79.77;99861.13;5114271;28;20500;-69
2023/01/22 02:07:06;;;;;;;0.93;0.93;;;;;;;2.22;80.68;99863.69;5113046;28;20071;-69
2023/01/22 02:09:35;;;;;;;3.03;1.80;;;;;;;2.23;80.47;99865.38;5114220;28;20101;-68
2023/01/22 02:12:06;;;;;;;0.80;0.80;;;;;;;2.23;80.19;99869.59;5114384;28;20518;-69
2023/01/22 02:14:39;;;;;;;0.70;0.70;;;;;;;2.18;80.66;99861.88;5112735;28;20047;-68
2023/01/22 02:17:10;;;;;;;0.55;0.55;;;;;;;2.21;80.58;99851.91;5114239;28;20123;-70
2023/01/22 02:19:40;;;;;;;1.33;1.27;;;;;;;2.22;80.67;99848.59;5114167;28;20047;-70
2023/01/22 02:22:13;;;;;;;0.88;0.85;;;;;;;2.22;79.91;99841.03;5114051;28;20066;-70
2023/01/22 02:24:42;;;;;;;1.55;1.45;;;;;;;2.22;79.94;99843.56;5113882;28;20043;-70
2023/01/22 02:27:12;;;;;;;2.60;1.43;;;;;;;2.25;80.21;99847.84;5114010;28;20040;-70
2023/01/22 02:29:41;;;;;;;3.58;2.45;;;;;;;2.23;80.19;99852.81;5113992;28;20134;-70
2023/01/22 02:32:11;;;;;;;1.73;1.63;;;;;;;2.23;80.61;99849.44;5112838;28;20088;-70
2023/01/22 02:34:40;;;;;;;0.73;0.73;;;;;;;2.24;79.73;99841.06;5114250;28;20040;-70
2023/01/22 02:37:11;;;;;;;0.75;0.75;;;;;;;2.28;79.66;99842.91;5114272;28;20470;-70
2023/01/22 02:39:41;;;;;;;2.78;1.30;;;;;;;2.29;79.43;99850.50;5114168;28;20065;-71
2023/01/22 02:42:09;;;;;;;0.77;0.77;;;;;;;2.33;80.15;99846.41;5113875;28;20074;-70
2023/01/22 02:44:41;;;;;;;1.35;1.30;;;;;;;2.34;79.19;99843.13;5113829;28;20112;-70
2023/01/22 02:47:10;;;;;;;2.10;1.92;;;;;;;2.34;78.89;99843.97;5112936;28;20126;-71
2023/01/22 02:49:38;;;;;;;1.98;1.88;;;;;;;2.35;79.52;99834.78;5113802;28;20557;-71
2023/01/22 02:52:07;;;;;;;1.30;1.23;;;;;;;2.36;78.71;99846.53;5112478;28;20044;-70
2023/01/22 02:54:38;;;;;;;3.03;2.13;;;;;;;2.37;78.30;99838.19;5112473;28;20288;-70
2023/01/22 02:57:06;;;;;;;2.10;1.85;;;;;;;2.37;78.99;99841.56;5112880;28;20272;-70
2023/01/22 02:59:35;;;;;;;2.00;1.90;;;;;;;2.38;78.26;99840.75;5112750;28;20047;-71
2023/01/22 03:02:04;;;;;;;2.85;2.65;;;;;;;2.35;78.03;99834.78;5113985;28;20051;-70
2023/01/22 03:04:33;;;;;;;2.10;2.00;;;;;;;2.34;78.60;99833.91;5112479;28;20489;-70
2023/01/22 03:07:04;;;;;;;1.02;1.02;;;;;;;2.35;78.12;99834.78;5117527;28;20055;-70
2023/01/22 03:09:32;;;;;;;2.97;2.05;;;;;;;2.33;78.84;99828.78;5116645;28;20054;-70
2023/01/22 03:12:04;;;;;;;1.02;1.02;;;;;;;2.32;78.57;99829.63;5117464;28;20043;-70
2023/01/22 03:22:34;;;;;;;3.13;2.70;;;;;;;2.31;78.80;99832.94;5116212;28;20048;-70
2023/01/22 03:25:02;;;;;;;1.33;1.25;;;;;;;2.33;79.40;99832.19;5116157;28;20052;-70
2023/01/22 03:27:34;;;;;;;6.80;3.17;;;;;;;2.34;78.72;99838.94;5116405;28;20382;-70
2023/01/22 03:30:03;;;;;;;1.70;1.60;;;;;;;2.36;79.24;99837.31;5116043;28;20043;-70
2023/01/22 03:32:35;;;;;;;1.92;1.83;;;;;;;2.37;78.80;99838.19;5117111;28;20052;-70
2023/01/22 03:35:04;;;;;;;1.73;1.63;;;;;;;2.38;78.89;99839.88;5116222;28;20497;-70
2023/01/22 03:37:48;;;;;;;1.85;1.75;;;;;;;2.38;78.73;99840.75;5117015;28;20093;-70
2023/01/22 03:40:17;;;;;;;0.73;0.73;;;;;;;2.37;79.23;99844.09;5115866;28;20096;-70
2023/01/22 03:42:48;;;;;;;1.20;1.10;;;;;;;2.36;79.73;99847.41;5117238;28;20065;-70
2023/01/22 03:45:17;;;;;;;1.75;1.65;;;;;;;2.35;78.88;99848.19;5116943;27;20485;-70
2023/01/22 03:47:46;;;;;;;1.52;1.35;;;;;;;2.33;79.05;99846.41;5115822;28;20043;-70
2023/01/22 03:50:24;;;;;;;2.78;2.42;;;;;;;2.29;79.56;99845.47;5116030;28;20524;-70
2023/01/22 03:52:53;;;;;;;1.63;1.52;;;;;;;2.28;80.24;99837.88;5115747;28;20043;-70
2023/01/22 03:55:21;;;;;;;1.38;1.27;;;;;;;2.27;80.51;99847.09;5115590;28;20097;-70
2023/01/22 03:57:52;;;;;;;2.88;2.67;;;;;;;2.26;80.84;99842.84;5115783;28;20047;-70
2023/01/22 04:00:21;;;;;;;1.63;1.52;;;;;;;2.23;80.93;99850.28;5115710;28;20576;-69
2023/01/22 04:02:52;;;;;;;1.45;1.38;;;;;;;2.22;80.66;99858.66;5116639;28;20104;-69
2023/01/22 04:05:26;;;;;;;2.50;2.30;;;;;;;2.11;81.50;99854.91;5116594;28;20052;-70
2023/01/22 04:07:55;;;;;;;2.92;1.95;;;;;;;2.04;81.63;99863.03;5115279;28;20128;-70
2023/01/22 04:10:28;;;;;;;2.05;1.95;;;;;;;1.98;82.06;99852.75;5116700;28;20052;-70
2023/01/22 04:12:58;;;;;;;0.70;0.70;;;;;;;1.93;82.12;99844.19;5116417;28;20052;-69
2023/01/22 04:15:28;;;;;;;1.13;1.08;;;;;;;1.87;83.08;99836.44;5115453;28;20638;-69
2023/01/22 04:17:58;;;;;;;2.30;2.10;;;;;;;1.93;83.56;99850.06;5115207;28;20130;-70
2023/01/22 04:20:38;;;;;;;1.48;1.35;;;;;;;1.89;83.46;99854.94;5116184;28;20488;-69
2023/01/22 04:23:18;;;;;;;1.40;1.30;;;;;;;1.86;83.39;99857.34;5116177;28;20175;-69
2023/01/22 04:25:49;;;;;;;0.75;0.73;;;;;;;1.85;84.32;99855.63;5116237;28;20067;-70
2023/01/22 04:28:20;;;;;;;4.28;3.85;;;;;;;1.85;84.40;99850.59;5116107;28;20055;-70
2023/01/22 04:30:55;;;;;;;2.40;1.95;;;;;;;1.80;84.37;99847.91;5114765;28;20131;-69
2023/01/22 04:33:45;;;;;;;2.40;1.85;;;;;;;1.86;85.23;99857.34;5115685;28;20047;-70
2023/01/22 04:36:22;;;;;;;1.90;1.70;;;;;;;1.85;84.75;99860.66;5116048;27;20088;-70
2023/01/22 04:38:51;;;;;;;3.58;2.33;;;;;;;1.84;85.05;99858.94;5114701;28;20071;-70
2023/01/22 04:41:20;;;;;;;2.15;2.05;;;;;;;1.81;84.92;99868.91;5114876;28;20052;-70
2023/01/22 04:43:50;;;;;;;3.13;2.10;;;;;;;1.80;85.53;99867.19;5114660;28;20493;-70
2023/01/22 04:46:23;;;;;;;1.00;1.00;;;;;;;1.79;86.24;99862.97;5114765;28;20292;-70
2023/01/22 04:48:53;;;;;;;1.67;1.58;;;;;;;1.79;85.77;99860.44;5114840;28;20516;-70
2023/01/22 04:51:22;;;;;;;1.83;1.73;;;;;;;1.77;86.22;99867.94;5114726;28;20392;-71
2023/01/22 04:53:51;;;;;;;1.00;0.90;;;;;;;1.77;86.64;99872.13;5114353;28;20644;-71
2023/01/22 04:56:19;;;;;;;1.33;1.23;;;;;;;1.77;86.64;99867.94;5114965;28;20039;-71
2023/01/22 04:58:51;;;;;;;1.50;1.40;;;;;;;1.78;86.17;99866.25;5115791;28;20047;-71
2023/01/22 05:01:21;;;;;;;3.33;3.03;;;;;;;1.77;86.76;99869.59;5115392;28;20082;-71
2023/01/22 05:03:50;;;;;;;;;;;;;;;1.77;87.34;99872.13;5114613;28;20131;-71
2023/01/22 05:06:20;;;;;;;2.38;2.17;;;;;;;1.74;86.70;99879.53;5115622;28;20518;-72
2023/01/22 05:08:49;;;;;;;2.07;1.97;;;;;;;1.72;87.03;99883.66;5114084;28;20032;-72
2023/01/22 05:11:18;;;;;;;3.03;1.73;;;;;;;1.70;87.79;99875.19;5113972;28;20497;-72
2023/01/22 05:13:56;;;;;;;7.32;2.67;;;;;;;1.73;87.63;99875.28;5113936;28;20044;-72
2023/01/22 05:16:25;;;;;;;3.10;2.78;;;;;;;1.72;87.99;99868.56;5113980;28;20209;-72
2023/01/22 05:18:53;;;;;;;0.60;0.60;;;;;;;1.71;87.60;99876.91;5113859;28;20042;-72
2023/01/22 05:21:22;;;;;;;2.83;2.60;;;;;;;1.70;87.76;99886.13;5113827;28;20139;-73
2023/01/22 05:23:51;;;;;;;;;;;;;;;1.68;87.31;99887.69;5115013;27;20287;-72
2023/01/22 05:26:21;;;;;;;4.15;1.33;;;;;;;1.65;87.64;99881.72;5114904;28;19927;-72
2023/01/22 05:28:57;;;;;;;1.73;1.63;;;;;;;1.67;88.53;99883.50;5113630;28;20042;-72
2023/01/22 05:31:39;;;;;;;4.85;2.42;;;;;;;1.59;87.83;99876.44;5114886;28;20087;-72
2023/01/22 05:34:16;;;;;;;0.70;0.70;;;;;;;1.69;88.28;99893.59;5114732;28;20127;-72
2023/01/22 05:36:45;;;;;;;;;;;;;;;1.70;88.66;99890.28;5114275;28;20588;-72
2023/01/22 05:39:17;;;;;;;1.38;1.27;;;;;;;1.68;88.92;99886.88;5114725;28;19926;-72
2023/01/22 05:41:47;;;;;;;2.60;2.40;;;;;;;1.68;88.05;99881.84;5112995;28;20031;-72
2023/01/22 05:44:17;;;;;;;1.15;1.10;;;;;;;1.65;88.32;99887.63;5114192;28;20489;-72
2023/01/22 05:46:52;;;;;;;4.22;3.28;;;;;;;1.64;88.36;99895.06;5114235;28;20047;-72
2023/01/22 05:49:31;;;;;;;1.70;1.48;;;;;;;1.61;89.18;99900.84;5113924;28;20054;-72
2023/01/22 05:52:00;;;;;;;1.23;1.13;;;;;;;1.62;89.21;99899.19;5113053;28;20092;-72
2023/01/22 05:54:29;;;;;;;0.80;0.80;;;;;;;1.59;89.44;99896.56;5112616;28;20272;-72
2023/01/22 05:57:00;;;;;;;4.22;3.50;;;;;;;1.61;88.71;99900.03;5113446;28;20560;-72
2023/01/22 05:59:31;;;;;;;1.67;1.58;;;;;;;1.59;89.10;99896.56;5113275;28;20489;-72
2023/01/22 06:02:03;;;;;;;1.90;1.80;;;;;;;1.47;89.54;99881.00;5113038;28;20043;-72
2023/01/22 06:04:35;;;;;;;8.57;5.20;;;;;;;1.56;89.18;99902.31;5114560;28;20401;-72
2023/01/22 06:07:11;;;;;;;1.63;1.52;;;;;;;1.56;89.56;99907.34;5113419;28;20074;-72
2023/01/22 06:09:40;;;;;;;1.45;1.35;;;;;;;1.59;90.16;99914.16;5113288;28;20042;-73
2023/01/22 06:12:09;;;;;;;1.58;1.48;;;;;;;1.56;90.10;99917.41;5112874;28;20401;-71
2023/01/22 06:14:40;;;;;;;1.67;1.57;;;;;;;1.54;89.68;99903.06;5113246;28;20558;-72
2023/01/22 06:17:09;;;;;;;3.22;3.00;;;;;;;1.60;89.77;99909.22;5112940;28;20272;-71
2023/01/22 06:19:46;;;;;;;1.42;1.33;;;;;;;1.56;90.49;99909.03;5114719;28;20048;-71
2023/01/22 06:22:18;;;;;;;2.30;2.20;;;;;;;1.62;90.20;99922.69;5114280;28;20417;-73
2023/01/22 06:24:52;;;;;;;1.52;1.42;;;;;;;1.62;89.73;99914.28;5114248;28;20055;-72
2023/01/22 06:27:24;;;;;;;3.60;3.33;;;;;;;1.60;90.36;99926.81;5114345;28;20044;-71
2023/01/22 06:30:00;;;;;;;2.67;2.47;;;;;;;1.59;90.44;99931.75;5113933;28;20040;-72
2023/01/22 06:32:29;;;;;;;4.60;4.10;;;;;;;1.59;90.52;99946.84;5113938;28;20047;-71
2023/01/22 06:35:00;;;;;;;2.05;1.80;;;;;;;1.51;89.88;99941.56;5113979;28;20044;-72
2023/01/22 06:37:29;;;;;;;1.65;1.55;;;;;;;1.49;90.55;99939.78;5112580;28;20046;-71
2023/01/22 06:39:59;;;;;;;1.45;1.35;;;;;;;1.53;90.82;99934.94;5116143;28;20055;-71
2023/01/22 06:42:41;;;;;;;2.00;1.83;;;;;;;1.55;90.81;99935.84;5118122;28;20082;-71
2023/01/22 06:45:12;;;;;;;3.25;2.50;;;;;;;1.56;91.09;99937.53;5116914;28;20036;-73
2023/01/22 06:47:46;;;;;;;1.58;1.17;;;;;;;1.54;90.29;99933.25;5118025;28;20044;-71
2023/01/22 06:50:16;;;;;;;1.80;1.58;;;;;;;1.60;90.63;99933.50;5117912;28;20047;-72
2023/01/22 06:52:45;;;;;;;0.65;0.65;;;;;;;1.59;91.12;99926.75;5117902;28;20109;-72
2023/01/22 06:55:16;;;;;;;1.25;1.15;;;;;;;1.62;91.39;99947.84;5117837;28;20136;-71
2023/01/22 06:57:46;;;;;;;4.97;3.10;;;;;;;1.59;90.43;99946.84;5116796;28;20078;-72
2023/01/22 07:00:17;;;;;;;3.73;3.43;;;;;;;1.59;90.97;99951.88;5118038;28;20043;-72
2023/01/22 07:02:47;;;;;;;1.85;1.75;;;;;;;1.61;91.46;99960.38;5116465;28;20122;-74
2023/01/22 07:05:16;;;;;;;2.47;2.28;;;;;;;1.64;91.46;99965.50;5117665;28;20069;-74
2023/01/22 07:07:46;;;;;;;0.70;0.70;;;;;;;1.60;91.22;99961.16;5117936;28;20081;-74
2023/01/22 07:10:16;;;;;;;1.83;1.73;;;;;;;1.64;90.79;99968.88;5117620;28;20093;-73
2023/01/22 07:12:45;;;;;;;1.73;1.60;;;;;;;1.65;91.70;99967.22;5117784;28;20562;-74
2023/01/22 07:15:15;;;;;;;3.75;3.03;;;;;;;1.66;91.77;99954.69;5117557;28;20119;-75
2023/01/22 07:17:50;;;;;;;8.32;3.20;;;;;;;1.67;91.05;99948.03;5117411;28;20134;-75
2023/01/22 07:20:22;;;;;;;1.65;1.52;;;;;;;1.68;90.99;99958.13;5117495;28;20101;-75
2023/01/22 07:22:52;;;;;;;2.80;2.60;;;;;;;1.66;91.44;99964.75;5118251;28;20052;-74
2023/01/22 07:25:21;;;;;;;;;;;;;;;1.70;91.70;99965.75;5118111;28;20131;-76
2023/01/22 07:27:49;;;;;;;0.75;0.75;;;;;;;1.70;91.57;99975.81;5116068;28;19930;-77
2023/01/22 07:30:19;;;;;;;4.40;3.30;;;;;;;1.71;91.55;99972.50;5117477;28;20042;-77
2023/01/22 07:32:49;;;;;;;2.95;2.70;;;;;;;1.71;91.00;99967.47;5117208;28;20359;-77
2023/01/22 07:35:19;;;;;;;3.83;3.53;;;;;;;1.75;91.11;99964.28;5117430;28;20047;-75
2023/01/22 07:37:52;;;;;;;1.25;1.15;;;;;;;1.77;91.70;99956.00;5117217;28;20393;-74
2023/01/22 07:40:23;;;;;;;5.60;2.38;;;;;;;1.80;92.16;99961.13;5117025;28;20044;-73
2023/01/22 07:42:53;;;;;;;2.10;1.88;;;;;;;1.83;91.65;99961.25;5117296;28;20067;-73
2023/01/22 07:45:25;;;;;;;2.25;1.60;;;;;;;1.82;91.24;99966.22;5116935;28;20040;-72
2023/01/22 07:47:58;;;;;;;1.90;1.75;;;;;;;1.89;91.72;99973.22;5116883;28;20100;-72
2023/01/22 07:50:29;;;;;;;4.10;3.60;;;;;;;1.93;91.48;99980.06;5116570;28;20056;-71
2023/01/22 07:52:59;;;;;;;2.17;1.58;;;;;;;1.93;90.93;99980.06;5116654;28;20044;-70
2023/01/22 07:55:30;;;;;;;4.63;2.83;;;;;;;1.82;91.55;99966.22;5116791;28;20147;-69
2023/01/22 07:58:00;;;;;;;2.60;2.05;;;;;;;1.95;91.78;99983.50;5116737;28;20108;-69
2023/01/22 08:00:28;;;;;;;2.95;2.50;;;;;;;1.96;91.04;99997.81;5116702;28;20048;-69
2023/01/22 08:02:58;;;;;;;4.33;3.33;;;;;;;1.97;90.85;100007.06;5116572;28;20093;-68
2023/01/22 08:05:28;;;;;;;1.60;1.50;;;;;;;1.98;90.96;100007.13;5116933;28;20341;-69
2023/01/22 08:07:56;;;;;;;2.87;2.23;;;;;;;2.01;90.98;100008.91;5117030;28;20370;-69
2023/01/22 08:10:25;;;;;;;0.90;0.87;;;;;;;2.04;91.12;100009.00;5116422;28;20063;-70
2023/01/22 08:12:54;;;;;;;0.63;0.63;;;;;;;2.01;90.93;100013.94;5116714;28;20114;-70
2023/01/22 08:15:23;;;;;;;2.47;2.30;;;;;;;2.02;90.75;100013.13;5098503;28;20042;-69
2023/01/22 08:17:52;;;;;;;0.90;0.90;;;;;;;2.00;91.49;100004.66;5096014;28;20048;-69
2023/01/22 08:20:23;;;;;;;;;;;;;;;2.01;91.22;100011.44;5096232;28;20044;-69
2023/01/22 08:22:56;;;;;;;1.63;1.52;;;;;;;2.00;90.59;100008.03;5095622;28;19927;-69
2023/01/22 08:25:26;;;;;;;1.88;1.77;;;;;;;1.83;91.40;99998.13;5096010;28;20055;-69
2023/01/22 08:27:55;;;;;;;1.95;1.83;;;;;;;2.01;90.99;100024.00;5095827;28;20478;-69
2023/01/22 08:30:23;;;;;;;3.63;2.20;;;;;;;2.02;91.27;100025.72;5096047;28;20486;-69
2023/01/22 08:32:53;;;;;;;4.57;4.13;;;;;;;2.04;90.77;100017.41;5096263;28;20087;-69
2023/01/22 08:35:24;;;;;;;2.60;2.40;;;;;;;1.98;90.92;100008.78;5095465;28;20044;-69
2023/01/22 08:37:53;;;;;;;0.93;0.93;;;;;;;2.11;91.36;100031.13;5096174;28;20051;-69
2023/01/22 08:40:21;;;;;;;1.50;1.40;;;;;;;2.13;90.71;100026.13;5095398;28;20043;-69
2023/01/22 08:42:53;;;;;;;1.63;1.53;;;;;;;2.17;91.16;100036.38;5095752;28;20118;-69
2023/01/22 08:45:22;;;;;;;2.55;2.33;;;;;;;2.18;90.97;100048.16;5095510;28;20052;-70
2023/01/22 08:47:56;;;;;;;3.07;2.83;;;;;;;2.14;90.39;100046.31;5095561;28;20116;-68
2023/01/22 08:50:28;;;;;;;1.88;1.70;;;;;;;2.09;90.40;100049.47;5095591;28;20330;-68
2023/01/22 08:52:57;;;;;;;4.13;2.53;;;;;;;2.09;90.58;100047.78;5095216;28;20089;-68
2023/01/22 08:55:26;;;;;;;1.80;1.70;;;;;;;2.14;90.98;100060.56;5095505;28;20402;-68
2023/01/22 08:57:56;;;;;;;3.80;2.15;;;;;;;2.19;90.52;100059.94;5095099;28;20047;-68
2023/01/22 09:00:26;;;;;;;0.35;0.35;;;;;;;2.21;90.86;100073.44;5095364;28;20425;-69
2023/01/22 09:02:58;;;;;;;4.43;3.33;;;;;;;2.21;90.38;100063.38;5094324;28;20121;-70
2023/01/22 09:05:29;;;;;;;4.13;2.58;;;;;;;2.23;90.91;100076.03;5095277;28;20036;-70
2023/01/22 09:07:58;;;;;;;1.60;1.50;;;;;;;2.21;90.33;100077.66;5094959;28;20052;-69
2023/01/22 09:10:27;;;;;;;2.57;2.33;;;;;;;2.23;90.92;100086.94;5094847;28;20037;-70
2023/01/22 09:12:59;;;;;;;5.90;3.20;;;;;;;2.27;90.65;100086.28;5094835;28;20338;-69
2023/01/22 09:15:28;;;;;;;3.63;3.20;;;;;;;2.31;90.35;100084.72;5094712;28;20289;-69
2023/01/22 09:17:58;;;;;;;2.88;2.08;;;;;;;2.35;91.06;100079.84;5094627;28;20055;-69
2023/01/22 09:20:29;;;;;;;5.50;3.53;;;;;;;2.38;90.70;100082.50;5095086;28;20044;-68
2023/01/22 09:22:58;;;;;;;3.72;2.95;;;;;;;2.41;90.07;100082.63;5094451;28;20056;-69
2023/01/22 09:25:28;;;;;;;4.17;3.43;;;;;;;2.41;90.75;100085.16;5094712;28;20123;-69
2023/01/22 09:27:59;;;;;;;3.83;3.53;;;;;;;2.44;90.52;100082.75;5094732;28;20056;-69
2023/01/22 09:30:31;;;;;;;1.23;1.13;;;;;;;2.46;90.28;100083.66;5094887;28;20048;-69
2023/01/22 09:33:00;;;;;;;6.05;4.43;;;;;;;2.46;90.94;100093.75;5094674;28;20051;-70
2023/01/22 09:35:30;;;;;;;3.23;2.97;;;;;;;2.46;90.10;100091.22;5094423;28;20472;-70
2023/01/22 09:38:00;;;;;;;3.25;3.05;;;;;;;2.46;90.00;100093.75;5094724;28;20048;-70
2023/01/22 09:40:32;;;;;;;3.35;3.08;;;;;;;2.49;90.19;100101.41;5094419;28;20202;-69
2023/01/22 09:43:06;;;;;;;4.88;3.78;;;;;;;2.49;89.71;100106.47;5094272;28;20055;-69
2023/01/22 09:45:38;;;;;;;3.67;2.65;;;;;;;2.49;90.18;100101.41;5094588;28;20048;-69
2023/01/22 09:48:16;;;;;;;1.73;1.63;;;;;;;2.51;89.92;100102.34;5094196;28;20072;-70
2023/01/22 09:50:49;;;;;;;3.65;2.63;;;;;;;2.49;89.63;100106.47;5094449;28;20139;-71
2023/01/22 09:53:20;;;;;;;2.42;2.25;;;;;;;2.52;90.33;100105.72;5094226;28;20089;-71
2023/01/22 09:55:54;;;;;;;2.88;2.55;;;;;;;2.50;90.41;100108.16;5094063;28;20040;-70
2023/01/22 09:58:25;;;;;;;8.48;3.78;;;;;;;2.44;89.62;100102.91;5094431;28;20044;-69
2023/01/22 10:00:56;;;;;;;1.30;1.23;;;;;;;2.46;89.86;100100.44;5092814;28;20486;-70
2023/01/22 10:03:33;;;;;;;0.95;0.88;;;;;;;2.45;90.36;100099.56;5094239;28;20040;-69
2023/01/22 10:06:11;;;;;;;1.88;1.77;;;;;;;2.49;89.97;100106.47;5093969;28;20048;-70
2023/01/22 10:08:52;;;;;;;0.75;0.75;;;;;;;2.48;89.66;100098.81;5093905;28;20054;-70
2023/01/22 10:11:21;;;;;;;2.88;1.40;;;;;;;2.53;89.68;100105.75;5094504;28;20074;-70
2023/01/22 10:13:51;;;;;;;1.52;1.42;;;;;;;2.55;89.75;100101.63;5092663;28;20044;-70
2023/01/22 10:16:20;;;;;;;6.22;1.83;;;;;;;2.53;90.16;100093.16;5093247;28;20097;-70
2023/01/22 10:18:53;;;;;;;5.88;3.05;;;;;;;2.59;89.99;100103.47;5093748;28;20075;-70
2023/01/22 10:21:29;;;;;;;1.58;1.48;;;;;;;2.61;90.00;100101.03;5093736;28;20056;-69
2023/01/22 10:23:59;;;;;;;3.88;2.17;;;;;;;2.61;90.44;100111.97;5092888;28;20440;-71
2023/01/22 10:26:37;;;;;;;2.03;1.40;;;;;;;2.60;89.81;100112.75;5093052;28;20097;-70
2023/01/22 10:29:08;;;;;;;2.83;1.65;;;;;;;2.63;89.76;100104.44;5093699;28;20078;-71
2023/01/22 10:31:39;;;;;;;0.80;0.80;;;;;;;2.62;89.70;100108.63;5093607;28;20044;-70
2023/01/22 10:34:14;;;;;;;2.60;2.22;;;;;;;2.63;89.93;100115.38;5092985;28;20105;-72
2023/01/22 10:36:51;;;;;;;2.05;1.88;;;;;;;2.64;90.03;100107.00;5093541;28;20048;-72
2023/01/22 10:39:20;;;;;;;2.33;2.20;;;;;;;2.63;90.25;100107.84;5093469;28;20052;-73
2023/01/22 10:41:49;;;;;;;1.20;1.10;;;;;;;2.67;90.20;100107.13;5093485;28;20044;-73
2023/01/22 10:44:21;;;;;;;1.45;1.33;;;;;;;2.68;89.74;100118.94;5093754;28;20036;-73
2023/01/22 10:46:52;;;;;;;1.58;1.48;;;;;;;2.68;90.16;100123.97;5093770;28;20050;-75
2023/01/22 10:49:23;;;;;;;2.60;2.40;;;;;;;2.70;90.08;100119.84;5093490;28;20082;-73
2023/01/22 10:51:55;;;;;;;2.67;2.15;;;;;;;2.72;90.33;100123.28;5093663;28;20048;-72
2023/01/22 10:54:30;;;;;;;3.72;2.20;;;;;;;2.75;90.43;100121.69;5093422;28;20044;-73
2023/01/22 10:57:17;;;;;;;2.60;2.40;;;;;;;2.72;89.31;100115.72;5093308;28;20040;-72
2023/01/22 10:59:49;;;;;;;5.28;2.45;;;;;;;2.69;89.72;100118.13;5093350;28;20047;-73
2023/01/22 11:02:23;;;;;;;2.03;1.90;;;;;;;2.67;89.54;100122.25;5093313;28;20051;-73
2023/01/22 11:04:52;;;;;;;3.50;2.10;;;;;;;2.60;90.12;100110.22;5093304;28;20102;-72
2023/01/22 11:07:24;;;;;;;;;;;;;;;2.70;89.64;100122.38;5091862;28;20090;-72
2023/01/22 11:10:00;;;;;;;1.73;1.05;;;;;;;2.72;89.93;100125.81;5093202;28;19920;-71
2023/01/22 11:12:31;;;;;;;1.15;1.08;;;;;;;2.72;89.81;100115.72;5093265;28;20048;-71
2023/01/22 11:15:06;;;;;;;1.95;1.80;;;;;;;2.73;90.18;100117.44;5093703;28;20052;-71
2023/01/22 11:17:40;;;;;;;3.35;3.05;;;;;;;2.75;90.13;100119.16;5093205;28;20121;-71
2023/01/22 11:20:19;;;;;;;1.73;1.63;;;;;;;2.77;90.15;100117.53;5093143;28;20052;-71
2023/01/22 11:23:15;;;;;;;3.45;2.70;;;;;;;2.80;89.66;100110.09;5093210;28;20075;-70
2023/01/22 11:25:49;;;;;;;1.80;1.70;;;;;;;2.84;89.77;100109.41;5093189;28;20064;-69
2023/01/22 11:28:31;;;;;;;3.00;2.80;;;;;;;2.86;89.86;100115.34;5097206;28;20044;-70
2023/01/22 11:31:17;;;;;;;0.55;0.55;;;;;;;2.88;90.42;100116.31;5097175;28;20074;-69
2023/01/22 11:34:07;;;;;;;3.85;3.08;;;;;;;2.92;89.36;100123.16;5096823;28;20493;-70
2023/01/22 11:36:43;;;;;;;1.40;1.30;;;;;;;2.97;89.60;100114.09;5096664;28;20047;-69
2023/01/22 11:39:22;;;;;;;3.33;2.55;;;;;;;2.99;89.56;100120.06;5096756;28;20405;-68
2023/01/22 11:42:03;;;;;;;2.20;2.05;;;;;;;2.95;90.14;100118.25;5096675;28;20052;-68
2023/01/22 11:44:55;;;;;;;2.08;1.95;;;;;;;3.01;90.15;100120.97;5096434;28;20405;-68
2023/01/22 11:47:43;;;;;;;2.80;2.50;;;;;;;3.03;89.50;100126.91;5096076;28;20128;-68
2023/01/22 11:50:22;;;;;;;4.57;3.22;;;;;;;3.05;89.46;100136.25;5096756;28;20048;-67
2023/01/22 11:53:00;;;;;;;1.00;0.98;;;;;;;3.05;89.50;100127.81;5096393;28;20055;-67
2023/01/22 11:55:47;;;;;;;0.88;0.88;;;;;;;3.05;89.49;100128.69;5096337;28;20048;-68
2023/01/22 11:58:25;;;;;;;3.17;2.08;;;;;;;3.07;89.86;100129.59;5096460;28;20051;-68
2023/01/22 12:01:06;;;;;;;2.55;2.35;;;;;;;3.09;89.89;100127.16;5095849;28;20410;-68
2023/01/22 12:03:58;;;;;;;2.47;2.28;;;;;;;3.06;89.80;100127.03;5094128;28;20442;-68
2023/01/22 12:06:48;;;;;;;1.23;1.13;;;;;;;3.08;89.37;100130.47;5094860;28;20105;-68
2023/01/22 12:09:23;;;;;;;1.13;1.08;;;;;;;3.08;89.20;100133.00;5096046;28;20040;-69
2023/01/22 12:12:12;;;;;;;2.45;2.28;;;;;;;3.12;90.02;100143.22;5096339;28;20044;-70